sensor_id;sensor_type;location;lat;lon;timestamp;P1;durP1;ratioP1;P2;durP2;ratioP2
25079;SDS011;13071;48.868;9.996;2022-07-10T00:01:47;6.05;;;3.60;;
25079;SDS011;13071;48.868;9.996;2022-07-10T00:04:13;3.80;;;3.50;;
25079;SDS011;13071;48.868;9.996;2022-07-10T00:06:41;5.18;;;3.10;;
25079;SDS011;13071;48.868;9.996;2022-07-10T00:09:11;4.50;;;3.47;;
25079;SDS011;13071;48.868;9.996;2022-07-10T00:11:38;4.88;;;3.60;;
25079;SDS011;13071;48.868;9.996;2022-07-10T00:14:05;4.10;;;3.72;;
25079;SDS011;13071;48.868;9.996;2022-07-10T00:16:31;4.13;;;3.58;;
25079;SDS011;13071;48.868;9.996;2022-07-10T00:18:58;3.83;;;3.40;;
25079;SDS011;13071;48.868;9.996;2022-07-10T00:21:25;4.57;;;3.88;;
25079;SDS011;13071;48.868;9.996;2022-07-10T00:23:53;4.53;;;3.78;;
25079;SDS011;13071;48.868;9.996;2022-07-10T00:26:19;4.82;;;3.95;;
25079;SDS011;13071;48.868;9.996;2022-07-10T00:28:46;4.25;;;3.78;;
25079;SDS011;13071;48.868;9.996;2022-07-10T00:31:12;5.57;;;3.63;;
25079;SDS011;13071;48.868;9.996;2022-07-10T00:33:39;4.45;;;3.78;;
25079;SDS011;13071;48.868;9.996;2022-07-10T00:36:06;4.35;;;3.80;;
25079;SDS011;13071;48.868;9.996;2022-07-10T00:38:33;7.05;;;3.75;;
25079;SDS011;13071;48.868;9.996;2022-07-10T00:41:01;5.32;;;3.70;;
25079;SDS011;13071;48.868;9.996;2022-07-10T00:43:28;5.22;;;4.10;;
25079;SDS011;13071;48.868;9.996;2022-07-10T00:45:54;4.00;;;3.60;;
25079;SDS011;13071;48.868;9.996;2022-07-10T00:48:21;5.38;;;4.18;;
25079;SDS011;13071;48.868;9.996;2022-07-10T00:50:47;6.13;;;4.18;;
25079;SDS011;13071;48.868;9.996;2022-07-10T00:53:14;4.78;;;4.03;;
25079;SDS011;13071;48.868;9.996;2022-07-10T00:55:41;3.90;;;3.50;;
25079;SDS011;13071;48.868;9.996;2022-07-10T00:58:10;9.15;;;4.53;;
25079;SDS011;13071;48.868;9.996;2022-07-10T01:00:38;4.25;;;3.75;;
25079;SDS011;13071;48.868;9.996;2022-07-10T01:03:05;6.60;;;4.03;;
25079;SDS011;13071;48.868;9.996;2022-07-10T01:05:32;5.50;;;4.32;;
25079;SDS011;13071;48.868;9.996;2022-07-10T01:07:59;5.05;;;3.97;;
25079;SDS011;13071;48.868;9.996;2022-07-10T01:10:25;4.13;;;3.72;;
25079;SDS011;13071;48.868;9.996;2022-07-10T01:12:52;5.20;;;4.38;;
25079;SDS011;13071;48.868;9.996;2022-07-10T01:15:21;4.88;;;3.97;;
25079;SDS011;13071;48.868;9.996;2022-07-10T01:17:47;5.63;;;4.10;;
25079;SDS011;13071;48.868;9.996;2022-07-10T01:20:14;6.35;;;4.38;;
25079;SDS011;13071;48.868;9.996;2022-07-10T01:22:42;6.93;;;5.18;;
25079;SDS011;13071;48.868;9.996;2022-07-10T01:25:09;5.78;;;4.57;;
25079;SDS011;13071;48.868;9.996;2022-07-10T01:27:37;5.75;;;4.38;;
25079;SDS011;13071;48.868;9.996;2022-07-10T01:30:04;5.35;;;4.70;;
25079;SDS011;13071;48.868;9.996;2022-07-10T01:32:36;8.15;;;4.88;;
25079;SDS011;13071;48.868;9.996;2022-07-10T01:35:03;9.60;;;5.15;;
25079;SDS011;13071;48.868;9.996;2022-07-10T01:37:31;7.20;;;4.53;;
25079;SDS011;13071;48.868;9.996;2022-07-10T01:39:59;7.45;;;5.10;;
25079;SDS011;13071;48.868;9.996;2022-07-10T01:42:25;6.72;;;5.07;;
25079;SDS011;13071;48.868;9.996;2022-07-10T01:44:52;8.32;;;5.18;;
25079;SDS011;13071;48.868;9.996;2022-07-10T01:47:20;8.07;;;5.43;;
25079;SDS011;13071;48.868;9.996;2022-07-10T01:49:49;8.00;;;5.40;;
25079;SDS011;13071;48.868;9.996;2022-07-10T01:52:16;7.45;;;5.32;;
25079;SDS011;13071;48.868;9.996;2022-07-10T01:54:42;6.00;;;4.68;;
25079;SDS011;13071;48.868;9.996;2022-07-10T01:57:10;6.28;;;5.00;;
25079;SDS011;13071;48.868;9.996;2022-07-10T01:59:37;8.25;;;4.90;;
25079;SDS011;13071;48.868;9.996;2022-07-10T02:02:04;4.95;;;4.45;;
25079;SDS011;13071;48.868;9.996;2022-07-10T02:04:30;7.68;;;4.57;;
25079;SDS011;13071;48.868;9.996;2022-07-10T02:07:08;6.03;;;4.88;;
25079;SDS011;13071;48.868;9.996;2022-07-10T02:09:35;6.30;;;5.10;;
25079;SDS011;13071;48.868;9.996;2022-07-10T02:12:02;7.93;;;5.47;;
25079;SDS011;13071;48.868;9.996;2022-07-10T02:14:31;6.95;;;5.30;;
25079;SDS011;13071;48.868;9.996;2022-07-10T02:16:58;5.97;;;5.07;;
25079;SDS011;13071;48.868;9.996;2022-07-10T02:19:24;6.35;;;4.72;;
25079;SDS011;13071;48.868;9.996;2022-07-10T02:21:52;7.35;;;4.97;;
25079;SDS011;13071;48.868;9.996;2022-07-10T02:24:19;8.15;;;5.13;;
25079;SDS011;13071;48.868;9.996;2022-07-10T02:26:45;7.35;;;5.25;;
25079;SDS011;13071;48.868;9.996;2022-07-10T02:29:12;6.00;;;4.70;;
25079;SDS011;13071;48.868;9.996;2022-07-10T02:31:40;5.95;;;5.13;;
25079;SDS011;13071;48.868;9.996;2022-07-10T02:34:07;6.47;;;5.00;;
25079;SDS011;13071;48.868;9.996;2022-07-10T02:36:34;9.02;;;5.45;;
25079;SDS011;13071;48.868;9.996;2022-07-10T02:39:01;10.45;;;4.85;;
25079;SDS011;13071;48.868;9.996;2022-07-10T02:41:28;9.02;;;5.30;;
25079;SDS011;13071;48.868;9.996;2022-07-10T02:43:55;8.85;;;5.57;;
25079;SDS011;13071;48.868;9.996;2022-07-10T02:46:22;8.35;;;5.13;;
25079;SDS011;13071;48.868;9.996;2022-07-10T02:48:50;9.60;;;5.65;;
25079;SDS011;13071;48.868;9.996;2022-07-10T02:51:16;7.32;;;5.10;;
25079;SDS011;13071;48.868;9.996;2022-07-10T02:53:43;9.10;;;5.63;;
25079;SDS011;13071;48.868;9.996;2022-07-10T02:56:10;6.88;;;5.50;;
25079;SDS011;13071;48.868;9.996;2022-07-10T02:58:37;10.18;;;5.72;;
25079;SDS011;13071;48.868;9.996;2022-07-10T03:01:04;6.60;;;5.43;;
25079;SDS011;13071;48.868;9.996;2022-07-10T03:03:31;9.32;;;5.90;;
25079;SDS011;13071;48.868;9.996;2022-07-10T03:05:59;10.05;;;5.70;;
25079;SDS011;13071;48.868;9.996;2022-07-10T03:08:26;7.47;;;5.93;;
25079;SDS011;13071;48.868;9.996;2022-07-10T03:10:52;11.82;;;6.18;;
25079;SDS011;13071;48.868;9.996;2022-07-10T03:13:19;9.38;;;6.05;;
25079;SDS011;13071;48.868;9.996;2022-07-10T03:15:46;8.15;;;5.63;;
25079;SDS011;13071;48.868;9.996;2022-07-10T03:18:12;8.10;;;5.78;;
25079;SDS011;13071;48.868;9.996;2022-07-10T03:20:39;7.15;;;5.90;;
25079;SDS011;13071;48.868;9.996;2022-07-10T03:23:07;8.55;;;6.10;;
25079;SDS011;13071;48.868;9.996;2022-07-10T03:25:33;8.63;;;6.28;;
25079;SDS011;13071;48.868;9.996;2022-07-10T03:28:00;12.25;;;5.90;;
25079;SDS011;13071;48.868;9.996;2022-07-10T03:30:27;9.13;;;6.63;;
25079;SDS011;13071;48.868;9.996;2022-07-10T03:32:53;8.98;;;6.03;;
25079;SDS011;13071;48.868;9.996;2022-07-10T03:35:20;9.35;;;6.60;;
25079;SDS011;13071;48.868;9.996;2022-07-10T03:37:47;11.43;;;6.97;;
25079;SDS011;13071;48.868;9.996;2022-07-10T03:40:15;10.63;;;6.68;;
25079;SDS011;13071;48.868;9.996;2022-07-10T03:42:41;10.65;;;6.95;;
25079;SDS011;13071;48.868;9.996;2022-07-10T03:45:08;10.77;;;6.60;;
25079;SDS011;13071;48.868;9.996;2022-07-10T03:47:35;9.80;;;6.55;;
25079;SDS011;13071;48.868;9.996;2022-07-10T03:50:02;10.15;;;6.70;;
25079;SDS011;13071;48.868;9.996;2022-07-10T03:52:29;9.90;;;6.63;;
25079;SDS011;13071;48.868;9.996;2022-07-10T03:54:56;8.13;;;6.35;;
25079;SDS011;13071;48.868;9.996;2022-07-10T03:57:24;10.25;;;6.55;;
25079;SDS011;13071;48.868;9.996;2022-07-10T04:00:08;9.93;;;6.60;;
25079;SDS011;13071;48.868;9.996;2022-07-10T04:02:36;13.25;;;6.28;;
25079;SDS011;13071;48.868;9.996;2022-07-10T04:05:04;8.88;;;5.95;;
25079;SDS011;13071;48.868;9.996;2022-07-10T04:07:32;10.43;;;6.07;;
25079;SDS011;13071;48.868;9.996;2022-07-10T04:09:59;11.88;;;6.50;;
25079;SDS011;13071;48.868;9.996;2022-07-10T04:12:27;8.13;;;5.93;;
25079;SDS011;13071;48.868;9.996;2022-07-10T04:14:54;10.25;;;5.97;;
25079;SDS011;13071;48.868;9.996;2022-07-10T04:17:21;9.52;;;6.40;;
25079;SDS011;13071;48.868;9.996;2022-07-10T04:19:47;16.70;;;6.13;;
25079;SDS011;13071;48.868;9.996;2022-07-10T04:22:14;7.85;;;5.65;;
25079;SDS011;13071;48.868;9.996;2022-07-10T04:24:41;9.60;;;6.63;;
25079;SDS011;13071;48.868;9.996;2022-07-10T04:27:07;10.25;;;5.65;;
25079;SDS011;13071;48.868;9.996;2022-07-10T04:29:35;9.40;;;6.13;;
25079;SDS011;13071;48.868;9.996;2022-07-10T04:32:02;8.32;;;5.35;;
25079;SDS011;13071;48.868;9.996;2022-07-10T04:34:29;8.07;;;5.63;;
25079;SDS011;13071;48.868;9.996;2022-07-10T04:36:56;8.60;;;5.40;;
25079;SDS011;13071;48.868;9.996;2022-07-10T04:39:23;8.90;;;5.50;;
25079;SDS011;13071;48.868;9.996;2022-07-10T04:41:50;6.20;;;5.50;;
25079;SDS011;13071;48.868;9.996;2022-07-10T04:44:17;9.70;;;5.75;;
25079;SDS011;13071;48.868;9.996;2022-07-10T04:46:45;9.43;;;5.10;;
25079;SDS011;13071;48.868;9.996;2022-07-10T04:49:13;8.13;;;5.32;;
25079;SDS011;13071;48.868;9.996;2022-07-10T04:51:39;11.50;;;5.18;;
25079;SDS011;13071;48.868;9.996;2022-07-10T04:54:06;9.15;;;5.90;;
25079;SDS011;13071;48.868;9.996;2022-07-10T04:56:33;8.85;;;6.30;;
25079;SDS011;13071;48.868;9.996;2022-07-10T04:58:59;9.57;;;5.72;;
25079;SDS011;13071;48.868;9.996;2022-07-10T05:01:26;7.15;;;5.35;;
25079;SDS011;13071;48.868;9.996;2022-07-10T05:03:54;9.95;;;5.45;;
25079;SDS011;13071;48.868;9.996;2022-07-10T05:06:20;10.00;;;5.20;;
25079;SDS011;13071;48.868;9.996;2022-07-10T05:08:47;7.68;;;5.40;;
25079;SDS011;13071;48.868;9.996;2022-07-10T05:11:14;6.78;;;5.00;;
25079;SDS011;13071;48.868;9.996;2022-07-10T05:13:41;6.30;;;4.70;;
25079;SDS011;13071;48.868;9.996;2022-07-10T05:16:10;5.88;;;4.35;;
25079;SDS011;13071;48.868;9.996;2022-07-10T05:18:38;6.63;;;4.20;;
25079;SDS011;13071;48.868;9.996;2022-07-10T05:21:06;7.15;;;4.25;;
25079;SDS011;13071;48.868;9.996;2022-07-10T05:23:33;7.05;;;4.85;;
25079;SDS011;13071;48.868;9.996;2022-07-10T05:26:00;4.60;;;4.03;;
25079;SDS011;13071;48.868;9.996;2022-07-10T05:28:26;6.50;;;4.43;;
25079;SDS011;13071;48.868;9.996;2022-07-10T05:30:53;5.97;;;4.45;;
25079;SDS011;13071;48.868;9.996;2022-07-10T05:33:19;9.82;;;4.20;;
25079;SDS011;13071;48.868;9.996;2022-07-10T05:35:46;5.70;;;4.05;;
25079;SDS011;13071;48.868;9.996;2022-07-10T05:38:15;6.78;;;4.28;;
25079;SDS011;13071;48.868;9.996;2022-07-10T05:40:42;7.50;;;4.10;;
25079;SDS011;13071;48.868;9.996;2022-07-10T05:43:09;6.60;;;4.00;;
25079;SDS011;13071;48.868;9.996;2022-07-10T05:45:36;5.78;;;3.97;;
25079;SDS011;13071;48.868;9.996;2022-07-10T05:48:03;4.03;;;3.60;;
25079;SDS011;13071;48.868;9.996;2022-07-10T05:50:30;5.40;;;3.90;;
25079;SDS011;13071;48.868;9.996;2022-07-10T05:52:57;7.05;;;3.40;;
25079;SDS011;13071;48.868;9.996;2022-07-10T05:55:25;4.25;;;3.30;;
25079;SDS011;13071;48.868;9.996;2022-07-10T05:57:51;3.55;;;3.20;;
25079;SDS011;13071;48.868;9.996;2022-07-10T06:00:19;4.88;;;3.53;;
25079;SDS011;13071;48.868;9.996;2022-07-10T06:02:46;6.13;;;3.10;;
25079;SDS011;13071;48.868;9.996;2022-07-10T06:05:13;7.22;;;3.30;;
25079;SDS011;13071;48.868;9.996;2022-07-10T06:07:39;5.63;;;3.42;;
25079;SDS011;13071;48.868;9.996;2022-07-10T06:10:06;5.05;;;3.17;;
25079;SDS011;13071;48.868;9.996;2022-07-10T06:12:34;4.82;;;3.10;;
25079;SDS011;13071;48.868;9.996;2022-07-10T06:15:02;2.80;;;2.47;;
25079;SDS011;13071;48.868;9.996;2022-07-10T06:17:29;4.35;;;2.92;;
25079;SDS011;13071;48.868;9.996;2022-07-10T06:19:56;3.05;;;2.75;;
25079;SDS011;13071;48.868;9.996;2022-07-10T06:22:22;5.97;;;2.70;;
25079;SDS011;13071;48.868;9.996;2022-07-10T06:24:58;3.45;;;2.20;;
25079;SDS011;13071;48.868;9.996;2022-07-10T06:27:26;4.68;;;2.40;;
25079;SDS011;13071;48.868;9.996;2022-07-10T06:29:54;4.13;;;2.30;;
25079;SDS011;13071;48.868;9.996;2022-07-10T06:32:21;2.67;;;2.00;;
25079;SDS011;13071;48.868;9.996;2022-07-10T06:34:49;5.18;;;2.33;;
25079;SDS011;13071;48.868;9.996;2022-07-10T06:37:16;2.20;;;2.00;;
25079;SDS011;13071;48.868;9.996;2022-07-10T06:39:42;4.25;;;2.28;;
25079;SDS011;13071;48.868;9.996;2022-07-10T06:42:09;4.80;;;2.17;;
25079;SDS011;13071;48.868;9.996;2022-07-10T06:44:35;2.50;;;2.30;;
25079;SDS011;13071;48.868;9.996;2022-07-10T06:47:04;2.58;;;1.98;;
25079;SDS011;13071;48.868;9.996;2022-07-10T06:49:50;5.93;;;1.90;;
25079;SDS011;13071;48.868;9.996;2022-07-10T06:52:16;2.95;;;2.13;;
25079;SDS011;13071;48.868;9.996;2022-07-10T06:54:43;2.53;;;2.03;;
25079;SDS011;13071;48.868;9.996;2022-07-10T06:57:10;4.63;;;1.85;;
25079;SDS011;13071;48.868;9.996;2022-07-10T06:59:37;2.83;;;1.85;;
25079;SDS011;13071;48.868;9.996;2022-07-10T07:02:05;1.75;;;1.65;;
25079;SDS011;13071;48.868;9.996;2022-07-10T07:04:32;1.52;;;1.42;;
25079;SDS011;13071;48.868;9.996;2022-07-10T07:06:59;3.63;;;1.50;;
25079;SDS011;13071;48.868;9.996;2022-07-10T07:09:25;1.45;;;1.30;;
25079;SDS011;13071;48.868;9.996;2022-07-10T07:11:52;3.78;;;1.40;;
25079;SDS011;13071;48.868;9.996;2022-07-10T07:14:19;1.50;;;1.40;;
25079;SDS011;13071;48.868;9.996;2022-07-10T07:16:45;3.58;;;1.30;;
25079;SDS011;13071;48.868;9.996;2022-07-10T07:19:24;4.20;;;1.27;;
25079;SDS011;13071;48.868;9.996;2022-07-10T07:21:57;2.92;;;1.08;;
25079;SDS011;13071;48.868;9.996;2022-07-10T07:24:41;1.35;;;1.20;;
25079;SDS011;13071;48.868;9.996;2022-07-10T07:27:09;2.83;;;1.42;;
25079;SDS011;13071;48.868;9.996;2022-07-10T07:29:35;1.63;;;1.15;;
25079;SDS011;13071;48.868;9.996;2022-07-10T07:32:02;1.50;;;1.02;;
25079;SDS011;13071;48.868;9.996;2022-07-10T07:34:31;3.35;;;1.13;;
25079;SDS011;13071;48.868;9.996;2022-07-10T07:36:58;1.73;;;1.15;;
25079;SDS011;13071;48.868;9.996;2022-07-10T07:39:24;1.52;;;1.15;;
25079;SDS011;13071;48.868;9.996;2022-07-10T07:41:51;4.03;;;1.27;;
25079;SDS011;13071;48.868;9.996;2022-07-10T07:44:17;1.88;;;1.10;;
25079;SDS011;13071;48.868;9.996;2022-07-10T07:46:44;7.53;;;1.17;;
25079;SDS011;13071;48.868;9.996;2022-07-10T07:49:12;1.60;;;1.20;;
25079;SDS011;13071;48.868;9.996;2022-07-10T07:51:40;2.17;;;1.10;;
25079;SDS011;13071;48.868;9.996;2022-07-10T07:54:06;2.20;;;1.10;;
25079;SDS011;13071;48.868;9.996;2022-07-10T07:56:33;2.95;;;1.20;;
25079;SDS011;13071;48.868;9.996;2022-07-10T07:58:59;3.97;;;1.25;;
25079;SDS011;13071;48.868;9.996;2022-07-10T08:01:26;2.92;;;1.27;;
25079;SDS011;13071;48.868;9.996;2022-07-10T08:03:53;2.85;;;1.30;;
25079;SDS011;13071;48.868;9.996;2022-07-10T08:06:20;1.13;;;1.00;;
25079;SDS011;13071;48.868;9.996;2022-07-10T08:08:48;1.77;;;1.10;;
25079;SDS011;13071;48.868;9.996;2022-07-10T08:11:15;3.17;;;1.20;;
25079;SDS011;13071;48.868;9.996;2022-07-10T08:13:42;4.07;;;1.52;;
25079;SDS011;13071;48.868;9.996;2022-07-10T08:16:09;2.22;;;1.27;;
25079;SDS011;13071;48.868;9.996;2022-07-10T08:18:35;1.90;;;1.38;;
25079;SDS011;13071;48.868;9.996;2022-07-10T08:21:02;2.08;;;1.25;;
25079;SDS011;13071;48.868;9.996;2022-07-10T08:23:29;1.10;;;1.10;;
25079;SDS011;13071;48.868;9.996;2022-07-10T08:25:57;1.67;;;1.17;;
25079;SDS011;13071;48.868;9.996;2022-07-10T08:28:24;4.47;;;1.30;;
25079;SDS011;13071;48.868;9.996;2022-07-10T08:30:50;3.10;;;1.15;;
25079;SDS011;13071;48.868;9.996;2022-07-10T08:33:17;0.88;;;0.88;;
25079;SDS011;13071;48.868;9.996;2022-07-10T08:35:43;1.48;;;0.90;;
25079;SDS011;13071;48.868;9.996;2022-07-10T08:38:11;5.15;;;1.42;;
25079;SDS011;13071;48.868;9.996;2022-07-10T08:40:38;2.95;;;1.20;;
25079;SDS011;13071;48.868;9.996;2022-07-10T08:43:06;3.53;;;1.25;;
25079;SDS011;13071;48.868;9.996;2022-07-10T08:45:33;1.58;;;1.27;;
25079;SDS011;13071;48.868;9.996;2022-07-10T08:48:01;4.88;;;1.50;;
25079;SDS011;13071;48.868;9.996;2022-07-10T08:50:31;1.35;;;1.25;;
25079;SDS011;13071;48.868;9.996;2022-07-10T08:53:00;1.63;;;1.23;;
25079;SDS011;13071;48.868;9.996;2022-07-10T08:55:34;4.88;;;1.50;;
25079;SDS011;13071;48.868;9.996;2022-07-10T08:58:02;1.42;;;1.23;;
25079;SDS011;13071;48.868;9.996;2022-07-10T09:00:30;1.30;;;1.08;;
25079;SDS011;13071;48.868;9.996;2022-07-10T09:02:57;1.77;;;1.20;;
25079;SDS011;13071;48.868;9.996;2022-07-10T09:05:24;1.20;;;1.08;;
25079;SDS011;13071;48.868;9.996;2022-07-10T09:07:52;1.25;;;1.15;;
25079;SDS011;13071;48.868;9.996;2022-07-10T09:10:20;5.90;;;1.75;;
25079;SDS011;13071;48.868;9.996;2022-07-10T09:12:51;1.52;;;1.42;;
25079;SDS011;13071;48.868;9.996;2022-07-10T09:15:20;1.15;;;1.15;;
25079;SDS011;13071;48.868;9.996;2022-07-10T09:17:53;3.08;;;1.20;;
25079;SDS011;13071;48.868;9.996;2022-07-10T09:20:25;3.15;;;1.40;;
25079;SDS011;13071;48.868;9.996;2022-07-10T09:22:54;2.60;;;1.35;;
25079;SDS011;13071;48.868;9.996;2022-07-10T09:25:21;1.60;;;1.50;;
25079;SDS011;13071;48.868;9.996;2022-07-10T09:27:50;1.92;;;1.60;;
25079;SDS011;13071;48.868;9.996;2022-07-10T09:30:30;1.95;;;1.50;;
25079;SDS011;13071;48.868;9.996;2022-07-10T09:33:21;3.13;;;1.38;;
25079;SDS011;13071;48.868;9.996;2022-07-10T09:36:01;1.38;;;1.30;;
25079;SDS011;13071;48.868;9.996;2022-07-10T09:38:48;1.52;;;1.38;;
25079;SDS011;13071;48.868;9.996;2022-07-10T09:41:17;4.55;;;1.40;;
25079;SDS011;13071;48.868;9.996;2022-07-10T09:43:45;1.58;;;1.40;;
25079;SDS011;13071;48.868;9.996;2022-07-10T09:46:13;2.35;;;1.33;;
25079;SDS011;13071;48.868;9.996;2022-07-10T09:48:41;1.48;;;1.38;;
25079;SDS011;13071;48.868;9.996;2022-07-10T09:51:09;2.95;;;1.48;;
25079;SDS011;13071;48.868;9.996;2022-07-10T09:53:37;1.33;;;1.30;;
25079;SDS011;13071;48.868;9.996;2022-07-10T09:56:06;1.17;;;1.08;;
25079;SDS011;13071;48.868;9.996;2022-07-10T09:58:34;1.77;;;1.20;;
25079;SDS011;13071;48.868;9.996;2022-07-10T10:01:02;1.10;;;1.10;;
25079;SDS011;13071;48.868;9.996;2022-07-10T10:03:33;2.42;;;1.20;;
25079;SDS011;13071;48.868;9.996;2022-07-10T10:06:03;1.20;;;1.20;;
25079;SDS011;13071;48.868;9.996;2022-07-10T10:08:37;5.80;;;1.40;;
25079;SDS011;13071;48.868;9.996;2022-07-10T10:11:14;2.47;;;1.30;;
25079;SDS011;13071;48.868;9.996;2022-07-10T10:13:43;0.98;;;0.98;;
25079;SDS011;13071;48.868;9.996;2022-07-10T10:16:10;1.20;;;1.20;;
25079;SDS011;13071;48.868;9.996;2022-07-10T10:18:36;1.60;;;1.10;;
25079;SDS011;13071;48.868;9.996;2022-07-10T10:21:26;1.10;;;1.02;;
25079;SDS011;13071;48.868;9.996;2022-07-10T10:23:53;2.33;;;1.40;;
25079;SDS011;13071;48.868;9.996;2022-07-10T10:26:21;1.85;;;0.93;;
25079;SDS011;13071;48.868;9.996;2022-07-10T10:28:49;1.35;;;1.15;;
25079;SDS011;13071;48.868;9.996;2022-07-10T10:31:18;1.67;;;1.20;;
25079;SDS011;13071;48.868;9.996;2022-07-10T10:33:46;1.58;;;1.23;;
25079;SDS011;13071;48.868;9.996;2022-07-10T10:39:12;3.60;;;1.30;;
25079;SDS011;13071;48.868;9.996;2022-07-10T10:41:41;3.38;;;1.17;;
25079;SDS011;13071;48.868;9.996;2022-07-10T10:44:27;1.00;;;1.00;;
25079;SDS011;13071;48.868;9.996;2022-07-10T10:46:58;1.67;;;1.05;;
25079;SDS011;13071;48.868;9.996;2022-07-10T10:49:49;1.52;;;1.10;;
25079;SDS011;13071;48.868;9.996;2022-07-10T10:52:19;3.42;;;1.27;;
25079;SDS011;13071;48.868;9.996;2022-07-10T10:54:59;1.33;;;1.15;;
25079;SDS011;13071;48.868;9.996;2022-07-10T10:57:38;3.13;;;1.15;;
25079;SDS011;13071;48.868;9.996;2022-07-10T11:00:11;1.45;;;1.35;;
25079;SDS011;13071;48.868;9.996;2022-07-10T11:02:40;1.63;;;1.20;;
25079;SDS011;13071;48.868;9.996;2022-07-10T11:08:09;1.20;;;1.10;;
25079;SDS011;13071;48.868;9.996;2022-07-10T11:10:37;1.15;;;1.10;;
25079;SDS011;13071;48.868;9.996;2022-07-10T11:13:05;1.20;;;1.20;;
25079;SDS011;13071;48.868;9.996;2022-07-10T11:15:33;4.82;;;1.25;;
25079;SDS011;13071;48.868;9.996;2022-07-10T11:18:05;1.58;;;1.08;;
25079;SDS011;13071;48.868;9.996;2022-07-10T11:20:33;2.15;;;0.90;;
25079;SDS011;13071;48.868;9.996;2022-07-10T11:26:23;3.00;;;1.20;;
25079;SDS011;13071;48.868;9.996;2022-07-10T11:28:57;1.52;;;1.02;;
25079;SDS011;13071;48.868;9.996;2022-07-10T11:31:26;2.20;;;1.30;;
25079;SDS011;13071;48.868;9.996;2022-07-10T11:33:55;0.95;;;0.95;;
25079;SDS011;13071;48.868;9.996;2022-07-10T11:36:22;2.65;;;1.27;;
25079;SDS011;13071;48.868;9.996;2022-07-10T11:38:57;2.78;;;1.10;;
25079;SDS011;13071;48.868;9.996;2022-07-10T11:41:25;1.27;;;1.10;;
25079;SDS011;13071;48.868;9.996;2022-07-10T11:43:52;3.13;;;1.27;;
25079;SDS011;13071;48.868;9.996;2022-07-10T11:46:20;1.13;;;1.10;;
25079;SDS011;13071;48.868;9.996;2022-07-10T11:48:49;2.53;;;1.08;;
25079;SDS011;13071;48.868;9.996;2022-07-10T11:51:21;5.20;;;1.30;;
25079;SDS011;13071;48.868;9.996;2022-07-10T11:53:58;2.15;;;1.00;;
25079;SDS011;13071;48.868;9.996;2022-07-10T11:56:27;1.52;;;1.02;;
25079;SDS011;13071;48.868;9.996;2022-07-10T11:58:55;2.55;;;1.17;;
25079;SDS011;13071;48.868;9.996;2022-07-10T12:01:23;2.60;;;1.10;;
25079;SDS011;13071;48.868;9.996;2022-07-10T12:03:53;0.90;;;0.90;;
25079;SDS011;13071;48.868;9.996;2022-07-10T12:06:22;1.48;;;1.23;;
25079;SDS011;13071;48.868;9.996;2022-07-10T12:08:49;1.38;;;1.27;;
25079;SDS011;13071;48.868;9.996;2022-07-10T12:11:18;3.20;;;1.00;;
25079;SDS011;13071;48.868;9.996;2022-07-10T12:13:47;2.08;;;0.95;;
25079;SDS011;13071;48.868;9.996;2022-07-10T12:16:15;0.85;;;0.82;;
25079;SDS011;13071;48.868;9.996;2022-07-10T12:18:42;0.73;;;0.73;;
25079;SDS011;13071;48.868;9.996;2022-07-10T12:21:09;1.13;;;1.00;;
25079;SDS011;13071;48.868;9.996;2022-07-10T12:23:37;2.10;;;1.10;;
25079;SDS011;13071;48.868;9.996;2022-07-10T12:26:07;2.30;;;1.05;;
25079;SDS011;13071;48.868;9.996;2022-07-10T12:28:49;1.58;;;0.90;;
25079;SDS011;13071;48.868;9.996;2022-07-10T12:31:20;1.10;;;1.00;;
25079;SDS011;13071;48.868;9.996;2022-07-10T12:33:51;1.48;;;0.73;;
25079;SDS011;13071;48.868;9.996;2022-07-10T12:36:19;5.38;;;1.50;;
25079;SDS011;13071;48.868;9.996;2022-07-10T12:38:52;1.15;;;0.85;;
25079;SDS011;13071;48.868;9.996;2022-07-10T12:41:20;0.80;;;0.80;;
25079;SDS011;13071;48.868;9.996;2022-07-10T12:43:51;4.32;;;1.23;;
25079;SDS011;13071;48.868;9.996;2022-07-10T12:46:18;0.90;;;0.90;;
25079;SDS011;13071;48.868;9.996;2022-07-10T12:49:00;3.17;;;1.02;;
25079;SDS011;13071;48.868;9.996;2022-07-10T12:51:28;2.40;;;1.10;;
25079;SDS011;13071;48.868;9.996;2022-07-10T12:53:56;1.70;;;1.10;;
25079;SDS011;13071;48.868;9.996;2022-07-10T12:56:26;1.38;;;0.98;;
25079;SDS011;13071;48.868;9.996;2022-07-10T12:58:55;1.33;;;1.05;;
25079;SDS011;13071;48.868;9.996;2022-07-10T13:01:22;1.65;;;1.02;;
25079;SDS011;13071;48.868;9.996;2022-07-10T13:03:56;1.20;;;0.90;;
25079;SDS011;13071;48.868;9.996;2022-07-10T13:06:28;1.38;;;0.98;;
25079;SDS011;13071;48.868;9.996;2022-07-10T13:08:55;1.40;;;1.20;;
25079;SDS011;13071;48.868;9.996;2022-07-10T13:11:22;1.08;;;1.00;;
25079;SDS011;13071;48.868;9.996;2022-07-10T13:13:49;3.58;;;1.20;;
25079;SDS011;13071;48.868;9.996;2022-07-10T13:16:17;0.90;;;0.90;;
25079;SDS011;13071;48.868;9.996;2022-07-10T13:18:44;1.80;;;1.13;;
25079;SDS011;13071;48.868;9.996;2022-07-10T13:21:11;1.20;;;1.10;;
25079;SDS011;13071;48.868;9.996;2022-07-10T13:23:38;0.85;;;0.85;;
25079;SDS011;13071;48.868;9.996;2022-07-10T13:26:05;4.40;;;1.00;;
25079;SDS011;13071;48.868;9.996;2022-07-10T13:28:32;1.05;;;1.00;;
25079;SDS011;13071;48.868;9.996;2022-07-10T13:31:00;1.85;;;0.93;;
25079;SDS011;13071;48.868;9.996;2022-07-10T13:33:28;1.83;;;1.20;;
25079;SDS011;13071;48.868;9.996;2022-07-10T13:35:55;1.08;;;1.00;;
25079;SDS011;13071;48.868;9.996;2022-07-10T13:38:25;0.90;;;0.90;;
25079;SDS011;13071;48.868;9.996;2022-07-10T13:40:51;3.05;;;1.00;;
25079;SDS011;13071;48.868;9.996;2022-07-10T13:43:18;0.90;;;0.90;;
25079;SDS011;13071;48.868;9.996;2022-07-10T13:45:46;2.15;;;1.20;;
25079;SDS011;13071;48.868;9.996;2022-07-10T13:48:13;1.02;;;1.02;;
25079;SDS011;13071;48.868;9.996;2022-07-10T13:50:43;2.17;;;1.08;;
25079;SDS011;13071;48.868;9.996;2022-07-10T13:53:12;1.70;;;1.10;;
25079;SDS011;13071;48.868;9.996;2022-07-10T13:55:39;2.05;;;1.10;;
25079;SDS011;13071;48.868;9.996;2022-07-10T13:58:06;1.10;;;1.00;;
25079;SDS011;13071;48.868;9.996;2022-07-10T14:00:34;1.00;;;1.00;;
25079;SDS011;13071;48.868;9.996;2022-07-10T14:03:00;0.90;;;0.90;;
25079;SDS011;13071;48.868;9.996;2022-07-10T14:05:27;1.80;;;0.90;;
25079;SDS011;13071;48.868;9.996;2022-07-10T14:07:55;0.80;;;0.80;;
25079;SDS011;13071;48.868;9.996;2022-07-10T14:10:22;1.45;;;1.00;;
25079;SDS011;13071;48.868;9.996;2022-07-10T14:12:49;1.17;;;0.75;;
25079;SDS011;13071;48.868;9.996;2022-07-10T14:15:16;1.00;;;1.00;;
25079;SDS011;13071;48.868;9.996;2022-07-10T14:17:43;2.85;;;1.27;;
25079;SDS011;13071;48.868;9.996;2022-07-10T14:20:10;2.58;;;0.90;;
25079;SDS011;13071;48.868;9.996;2022-07-10T14:22:37;1.15;;;1.00;;
25079;SDS011;13071;48.868;9.996;2022-07-10T14:25:06;1.55;;;1.23;;
25079;SDS011;13071;48.868;9.996;2022-07-10T14:27:34;0.90;;;0.90;;
25079;SDS011;13071;48.868;9.996;2022-07-10T14:30:01;1.65;;;1.05;;
25079;SDS011;13071;48.868;9.996;2022-07-10T14:32:27;2.17;;;0.90;;
25079;SDS011;13071;48.868;9.996;2022-07-10T14:34:54;2.45;;;0.90;;
25079;SDS011;13071;48.868;9.996;2022-07-10T14:37:21;1.33;;;1.00;;
25079;SDS011;13071;48.868;9.996;2022-07-10T14:39:47;2.50;;;1.08;;
25079;SDS011;13071;48.868;9.996;2022-07-10T14:42:15;0.93;;;0.80;;
25079;SDS011;13071;48.868;9.996;2022-07-10T14:44:42;1.83;;;1.08;;
25079;SDS011;13071;48.868;9.996;2022-07-10T14:47:09;0.93;;;0.80;;
25079;SDS011;13071;48.868;9.996;2022-07-10T14:49:35;0.80;;;0.80;;
25079;SDS011;13071;48.868;9.996;2022-07-10T14:52:02;1.60;;;1.00;;
25079;SDS011;13071;48.868;9.996;2022-07-10T14:54:29;1.55;;;1.00;;
25079;SDS011;13071;48.868;9.996;2022-07-10T14:56:56;2.75;;;0.93;;
25079;SDS011;13071;48.868;9.996;2022-07-10T14:59:24;1.45;;;0.90;;
25079;SDS011;13071;48.868;9.996;2022-07-10T15:01:51;1.25;;;0.88;;
25079;SDS011;13071;48.868;9.996;2022-07-10T15:04:18;0.70;;;0.70;;